createdAt,value
2018-05-04T00:00:50.191Z,17.02
2018-05-04T00:01:49.946Z,17.04
2018-05-04T00:02:49.970Z,17.05
2018-05-04T00:03:49.986Z,17.04
2018-05-04T00:04:50.296Z,17.05
2018-05-04T00:05:50.304Z,17.06
2018-05-04T00:06:50.319Z,17.05
2018-05-04T00:07:50.067Z,17.06
2018-05-04T00:08:50.364Z,17.02
2018-05-04T00:09:50.103Z,17.02
2018-05-04T00:10:50.429Z,17.06
2018-05-04T00:11:50.437Z,17.01
2018-05-04T00:12:50.445Z,16.94
2018-05-04T00:13:50.492Z,17.04
2018-05-04T00:14:50.489Z,17.06
2018-05-04T00:15:50.225Z,17.14
2018-05-04T00:16:50.527Z,16.97
2018-05-04T00:17:50.553Z,17.14
2018-05-04T00:18:50.589Z,17.02
2018-05-04T00:19:50.312Z,17.08
2018-05-04T00:20:50.330Z,16.99
2018-05-04T00:21:50.341Z,16.99
2018-05-04T00:22:50.646Z,16.99
2018-05-04T00:23:50.672Z,16.99
2018-05-04T00:24:50.699Z,17.02
2018-05-04T00:25:50.710Z,16.99
2018-05-04T00:26:50.425Z,16.97
2018-05-04T00:27:50.728Z,16.99
2018-05-04T00:28:50.190Z,17.01
2018-05-04T00:29:50.784Z,17.01
2018-05-04T00:30:50.523Z,16.99
2018-05-04T00:31:50.829Z,16.97
2018-05-04T00:32:50.861Z,16.96
2018-05-04T00:33:50.600Z,16.87
2018-05-04T00:34:50.899Z,16.87
2018-05-04T00:35:50.645Z,16.96
2018-05-04T00:36:50.368Z,16.89
2018-05-04T00:37:50.958Z,16.87
2018-05-04T00:38:50.965Z,16.89
2018-05-04T00:39:50.975Z,16.94
2018-05-04T00:40:51.025Z,16.94
2018-05-04T00:41:51.050Z,16.89
2018-05-04T00:42:51.109Z,16.93
2018-05-04T00:43:51.129Z,16.93
2018-05-04T00:44:50.812Z,16.93
2018-05-04T00:45:51.136Z,16.89
2018-05-04T00:46:50.857Z,16.9
2018-05-04T00:47:51.152Z,16.9
2018-05-04T00:48:50.890Z,16.81
2018-05-04T00:49:50.905Z,16.83
2018-05-04T00:50:50.925Z,16.79
2018-05-04T00:51:50.955Z,16.79
2018-05-04T00:52:51.036Z,16.78
2018-05-04T00:53:50.988Z,16.83
2018-05-04T00:54:51.274Z,16.76
2018-05-04T00:55:51.335Z,16.83
2018-05-04T00:56:51.066Z,16.84
2018-05-04T00:57:51.395Z,16.86
2018-05-04T00:58:50.810Z,16.83
2018-05-04T00:59:51.096Z,16.75
2018-05-04T01:00:51.133Z,16.87
2018-05-04T01:01:51.133Z,16.76
2018-05-04T01:02:51.207Z,16.78
2018-05-04T01:03:51.207Z,16.76
2018-05-04T01:04:51.215Z,16.76
2018-05-04T01:05:51.219Z,16.78
2018-05-04T01:06:51.530Z,16.72
2018-05-04T01:07:51.268Z,16.75
2018-05-04T01:08:51.563Z,16.72
2018-05-04T01:09:51.316Z,16.71
2018-05-04T01:10:51.627Z,16.75
2018-05-04T01:11:51.357Z,16.74
2018-05-04T01:12:51.636Z,16.71
2018-05-04T01:13:51.682Z,16.79
2018-05-04T01:14:51.707Z,16.78
2018-05-04T01:15:51.716Z,16.75
2018-05-04T01:16:51.738Z,16.68
2018-05-04T01:17:51.731Z,16.65
2018-05-04T01:18:51.756Z,16.69
2018-05-04T01:19:51.524Z,16.65
2018-05-04T01:20:51.812Z,16.65
2018-05-04T01:21:51.839Z,16.65
2018-05-04T01:22:51.851Z,16.64
2018-05-04T01:23:51.596Z,16.68
2018-05-04T01:24:51.614Z,16.61
2018-05-04T01:25:51.910Z,16.65
2018-05-04T01:26:51.937Z,16.61
2018-05-04T01:27:51.995Z,16.64
2018-05-04T01:28:51.677Z,16.61
2018-05-04T01:29:51.692Z,16.68
2018-05-04T01:30:51.745Z,16.66
2018-05-04T01:31:52.022Z,16.6
2018-05-04T01:32:52.110Z,16.6
2018-05-04T01:33:52.075Z,16.65
2018-05-04T01:34:52.079Z,16.54
2018-05-04T01:35:52.092Z,16.56
2018-05-04T01:36:52.110Z,16.56
2018-05-04T01:37:51.849Z,16.57
2018-05-04T01:38:52.145Z,16.53
2018-05-04T01:39:51.924Z,16.56
2018-05-04T01:40:52.237Z,16.54
2018-05-04T01:41:51.941Z,16.51
2018-05-04T01:42:51.687Z,16.47
2018-05-04T01:43:51.991Z,16.51
2018-05-04T01:44:51.709Z,16.49
2018-05-04T01:45:52.311Z,16.49
2018-05-04T01:46:52.318Z,16.56
2018-05-04T01:47:52.065Z,16.49
2018-05-04T01:48:52.386Z,16.53
2018-05-04T01:49:52.087Z,16.47
2018-05-04T01:50:52.423Z,16.56
2018-05-04T01:51:52.425Z,16.57
2018-05-04T01:52:52.437Z,16.49
2018-05-04T01:53:52.479Z,16.43
2018-05-04T01:54:52.492Z,16.43
2018-05-04T01:55:52.521Z,16.5
2018-05-04T01:56:52.257Z,16.5
2018-05-04T01:57:51.995Z,16.46
2018-05-04T01:58:52.326Z,16.46
2018-05-04T01:59:52.595Z,16.47
2018-05-04T02:00:52.592Z,16.36
2018-05-04T02:01:52.069Z,16.43
2018-05-04T02:02:52.621Z,16.39
2018-05-04T02:03:52.699Z,16.38
2018-05-04T02:04:52.695Z,16.39
2018-05-04T02:05:52.719Z,16.42
2018-05-04T02:06:52.744Z,16.39
2018-05-04T02:07:52.576Z,16.36
2018-05-04T02:08:52.756Z,16.38
2018-05-04T02:09:52.502Z,16.41
2018-05-04T02:10:52.811Z,16.43
2018-05-04T02:11:52.801Z,16.35
2018-05-04T02:12:52.286Z,16.41
2018-05-04T02:13:52.937Z,16.42
2018-05-04T02:14:52.893Z,16.41
2018-05-04T02:15:52.891Z,16.41
2018-05-04T02:16:52.917Z,16.39
2018-05-04T02:17:52.933Z,16.32
2018-05-04T02:18:52.953Z,16.35
2018-05-04T02:19:52.694Z,16.32
2018-05-04T02:20:52.724Z,16.35
2018-05-04T02:21:53.021Z,16.35
2018-05-04T02:22:53.013Z,16.39
2018-05-04T02:23:53.045Z,16.39
2018-05-04T02:24:53.078Z,16.36
2018-05-04T02:25:53.092Z,16.33
2018-05-04T02:26:52.824Z,16.35
2018-05-04T02:27:52.568Z,16.42
2018-05-04T02:28:52.884Z,16.41
2018-05-04T02:29:53.182Z,16.38
2018-05-04T02:30:53.188Z,16.23
2018-05-04T02:31:53.232Z,16.42
2018-05-04T02:32:53.255Z,16.41
2018-05-04T02:33:53.272Z,16.32
2018-05-04T02:34:53.017Z,16.35
2018-05-04T02:35:53.325Z,16.33
2018-05-04T02:36:53.303Z,16.32
2018-05-04T02:37:53.327Z,16.28
2018-05-04T02:38:53.411Z,16.24
2018-05-04T02:39:53.367Z,16.32
2018-05-04T02:40:53.113Z,16.21
2018-05-04T02:41:53.428Z,16.28
2018-05-04T02:42:53.429Z,16.24
2018-05-04T02:43:53.450Z,16.29
2018-05-04T02:44:53.487Z,16.24
2018-05-04T02:45:52.929Z,16.29
2018-05-04T02:46:53.506Z,16.23
2018-05-04T02:47:53.542Z,16.26
2018-05-04T02:48:53.604Z,16.21
2018-05-04T02:49:53.548Z,16.26
2018-05-04T02:50:53.610Z,16.29
2018-05-04T02:51:53.594Z,16.26
2018-05-04T02:52:53.609Z,16.21
2018-05-04T02:53:53.376Z,16.16
2018-05-04T02:54:53.682Z,16.15
2018-05-04T02:55:53.688Z,16.17
2018-05-04T02:56:53.711Z,16.13
2018-05-04T02:57:53.727Z,16.17
2018-05-04T02:58:53.457Z,16.15
2018-05-04T02:59:53.772Z,16.17
2018-05-04T03:00:53.787Z,16.12
2018-05-04T03:01:53.799Z,16.13
2018-05-04T03:02:53.835Z,16.15
2018-05-04T03:03:53.576Z,16.13
2018-05-04T03:04:53.844Z,16.09
2018-05-04T03:05:53.591Z,16.13
2018-05-04T03:06:53.899Z,16.13
2018-05-04T03:07:53.905Z,16.16
2018-05-04T03:08:53.988Z,16.16
2018-05-04T03:09:53.696Z,16.13
2018-05-04T03:10:53.698Z,16.17
2018-05-04T03:11:54.351Z,16.15
2018-05-04T03:12:54.026Z,16.01
2018-05-04T03:13:54.086Z,16.15
2018-05-04T03:14:53.930Z,16.12
2018-05-04T03:15:54.064Z,16.13
2018-05-04T03:16:54.191Z,16.12
2018-05-04T03:17:54.116Z,16.09
2018-05-04T03:18:53.834Z,16.09
2018-05-04T03:19:54.173Z,16.04
2018-05-04T03:20:53.879Z,16.05
2018-05-04T03:21:54.292Z,16.1
2018-05-04T03:22:54.205Z,16.15
2018-05-04T03:23:54.219Z,16.08
2018-05-04T03:24:54.237Z,16.13
2018-05-04T03:25:54.424Z,16.16
2018-05-04T03:26:54.267Z,16.02
2018-05-04T03:27:54.025Z,16.15
2018-05-04T03:28:54.330Z,16.04
2018-05-04T03:29:54.352Z,16.02
2018-05-04T03:30:54.358Z,16.02
2018-05-04T03:31:54.385Z,15.97
2018-05-04T03:32:54.120Z,15.98
2018-05-04T03:33:54.460Z,16.04
2018-05-04T03:34:54.146Z,16.01
2018-05-04T03:35:54.182Z,16.01
2018-05-04T03:36:54.457Z,16
2018-05-04T03:37:54.493Z,16.04
2018-05-04T03:38:54.562Z,16.04
2018-05-04T03:39:54.539Z,16.13
2018-05-04T03:40:54.559Z,15.92
2018-05-04T03:41:54.556Z,15.94
2018-05-04T03:42:54.734Z,15.98
2018-05-04T03:43:54.323Z,16.01
2018-05-04T03:44:54.632Z,15.98
2018-05-04T03:45:54.635Z,15.97
2018-05-04T03:46:54.668Z,15.98
2018-05-04T03:47:54.419Z,15.91
2018-05-04T03:48:54.707Z,16.05
2018-05-04T03:49:54.464Z,15.94
2018-05-04T03:50:54.727Z,15.97
2018-05-04T03:51:54.497Z,15.97
2018-05-04T03:52:54.768Z,16.01
2018-05-04T03:53:54.538Z,16
2018-05-04T03:54:54.824Z,15.97
2018-05-04T03:55:54.582Z,16.02
2018-05-04T03:56:54.857Z,16.01
2018-05-04T03:57:54.904Z,16.02
2018-05-04T03:58:54.920Z,16.01
2018-05-04T03:59:54.912Z,16
2018-05-04T04:00:55.003Z,16.05
2018-05-04T04:01:54.955Z,16.04
2018-05-04T04:02:54.718Z,15.98
2018-05-04T04:03:55.047Z,15.97
2018-05-04T04:04:55.021Z,16
2018-05-04T04:05:54.752Z,15.97
2018-05-04T04:06:55.053Z,16.02
2018-05-04T04:07:55.075Z,15.98
2018-05-04T04:08:54.823Z,16
2018-05-04T04:09:55.116Z,15.94
2018-05-04T04:10:54.842Z,15.98
2018-05-04T04:11:54.873Z,15.97
2018-05-04T04:12:55.175Z,16.02
2018-05-04T04:13:55.308Z,15.97
2018-05-04T04:14:55.213Z,15.97
2018-05-04T04:15:54.952Z,16.02
2018-05-04T04:16:55.267Z,15.97
2018-05-04T04:17:55.023Z,16
2018-05-04T04:18:55.275Z,15.98
2018-05-04T04:19:55.327Z,16.01
2018-05-04T04:20:55.051Z,16.04
2018-05-04T04:21:55.063Z,15.97
2018-05-04T04:22:55.382Z,16
2018-05-04T04:23:55.398Z,15.94
2018-05-04T04:24:55.388Z,16
2018-05-04T04:25:55.442Z,15.98
2018-05-04T04:26:54.893Z,16
2018-05-04T04:27:55.462Z,15.98
2018-05-04T04:28:55.191Z,16.01
2018-05-04T04:29:55.211Z,16
2018-05-04T04:30:55.523Z,15.97
2018-05-04T04:31:55.254Z,16
2018-05-04T04:32:55.269Z,16
2018-05-04T04:33:55.296Z,15.92
2018-05-04T04:34:55.306Z,15.97
2018-05-04T04:35:55.641Z,16
2018-05-04T04:36:55.666Z,16.01
2018-05-04T04:37:55.095Z,16.04
2018-05-04T04:38:55.573Z,15.98
2018-05-04T04:39:55.740Z,15.98
2018-05-04T04:40:55.457Z,16
2018-05-04T04:41:55.169Z,15.94
2018-05-04T04:42:55.735Z,15.95
2018-05-04T04:43:55.834Z,16.02
2018-05-04T04:44:55.788Z,16.05
2018-05-04T04:45:55.814Z,15.97
2018-05-04T04:46:55.852Z,16
2018-05-04T04:47:55.862Z,16.05
2018-05-04T04:48:55.849Z,16.02
2018-05-04T04:49:55.319Z,15.94
2018-05-04T04:50:55.358Z,15.94
2018-05-04T04:51:55.923Z,15.95
2018-05-04T04:52:55.653Z,15.97
2018-05-04T04:53:56.010Z,16.01
2018-05-04T04:54:55.972Z,16
2018-05-04T04:55:55.719Z,16
2018-05-04T04:56:56.036Z,16.02
2018-05-04T04:57:56.080Z,16.04
2018-05-04T04:58:56.060Z,16.05
2018-05-04T04:59:56.091Z,16.1
2018-05-04T05:00:55.832Z,16.01
2018-05-04T05:01:55.979Z,16
2018-05-04T05:02:56.139Z,15.98
2018-05-04T05:03:56.214Z,16.04
2018-05-04T05:04:55.897Z,16.08
2018-05-04T05:05:56.200Z,16.05
2018-05-04T05:06:56.202Z,16.1
2018-05-04T05:07:56.232Z,16.08
2018-05-04T05:08:56.043Z,16.09
2018-05-04T05:09:56.259Z,16.04
2018-05-04T05:10:56.297Z,16.1
2018-05-04T05:11:56.300Z,16.1
2018-05-04T05:12:56.043Z,16.15
2018-05-04T05:13:56.382Z,16.12
2018-05-04T05:14:56.086Z,16.15
2018-05-04T05:15:56.406Z,16.12
2018-05-04T05:16:56.410Z,16.16
2018-05-04T05:17:56.438Z,16.12
2018-05-04T05:18:56.517Z,16.15
2018-05-04T05:19:56.471Z,16.16
2018-05-04T05:20:56.214Z,16.09
2018-05-04T05:21:55.944Z,16.13
2018-05-04T05:22:56.612Z,16.17
2018-05-04T05:23:56.593Z,16.15
2018-05-04T05:24:56.567Z,16.16
2018-05-04T05:25:56.586Z,16.13
2018-05-04T05:26:56.588Z,16.21
2018-05-04T05:27:56.334Z,16.23
2018-05-04T05:28:56.695Z,16.26
2018-05-04T05:29:56.662Z,16.28
2018-05-04T05:30:56.702Z,16.24
2018-05-04T05:31:56.691Z,16.24
2018-05-04T05:32:56.718Z,16.26
2018-05-04T05:33:56.791Z,16.24
2018-05-04T05:34:56.765Z,16.15
2018-05-04T05:35:56.769Z,16.23
2018-05-04T05:36:56.800Z,16.35
2018-05-04T05:37:56.802Z,16.33
2018-05-04T05:38:56.885Z,16.33
2018-05-04T05:39:56.558Z,16.39
2018-05-04T05:40:56.872Z,16.39
2018-05-04T05:41:56.908Z,16.36
2018-05-04T05:42:56.918Z,16.36
2018-05-04T05:43:56.700Z,16.41
2018-05-04T05:44:56.659Z,16.42
2018-05-04T05:45:56.684Z,16.38
2018-05-04T05:46:56.996Z,16.39
2018-05-04T05:47:56.993Z,16.38
2018-05-04T05:48:57.033Z,16.43
2018-05-04T05:49:57.064Z,16.46
2018-05-04T05:50:57.078Z,16.51
2018-05-04T05:51:57.313Z,16.47
2018-05-04T05:52:57.102Z,16.53
2018-05-04T05:53:56.887Z,16.53
2018-05-04T05:54:57.168Z,16.6
2018-05-04T05:55:57.173Z,16.6
2018-05-04T05:56:57.175Z,16.65
2018-05-04T05:57:57.224Z,16.66
2018-05-04T05:58:56.924Z,16.69
2018-05-04T05:59:56.939Z,16.64
2018-05-04T06:00:57.268Z,16.76
2018-05-04T06:01:57.280Z,16.74
2018-05-04T06:02:57.308Z,16.78
2018-05-04T06:03:57.120Z,16.83
2018-05-04T06:04:57.351Z,16.81
2018-05-04T06:05:57.086Z,16.83
2018-05-04T06:06:57.370Z,16.86
2018-05-04T06:07:57.382Z,16.81
2018-05-04T06:08:57.456Z,16.91
2018-05-04T06:09:57.437Z,16.79
2018-05-04T06:10:57.449Z,16.91
2018-05-04T06:11:57.177Z,16.9
2018-05-04T06:12:57.210Z,16.9
2018-05-04T06:13:57.576Z,16.99
2018-05-04T06:14:57.616Z,16.99
2018-05-04T06:15:57.577Z,17.04
2018-05-04T06:16:57.587Z,16.99
2018-05-04T06:17:57.030Z,16.96
2018-05-04T06:18:57.655Z,17.02
2018-05-04T06:19:57.628Z,17.04
2018-05-04T06:20:57.667Z,17.05
2018-05-04T06:21:57.376Z,17.12
2018-05-04T06:22:57.686Z,17.06
2018-05-04T06:23:57.701Z,17.14
2018-05-04T06:24:57.705Z,17.11
2018-05-04T06:25:57.748Z,17.14
2018-05-04T06:26:57.764Z,17.19
2018-05-04T06:27:57.804Z,17.23
2018-05-04T06:28:57.928Z,17.2
2018-05-04T06:29:57.532Z,17.24
2018-05-04T06:30:57.851Z,17.24
2018-05-04T06:31:57.583Z,17.33
2018-05-04T06:32:57.872Z,17.36
2018-05-04T06:33:57.659Z,17.41
2018-05-04T06:34:57.926Z,17.31
2018-05-04T06:35:57.927Z,17.42
2018-05-04T06:36:57.684Z,17.48
2018-05-04T06:37:57.997Z,17.45
2018-05-04T06:38:57.737Z,17.54
2018-05-04T06:39:58.022Z,17.51
2018-05-04T06:40:58.052Z,17.56
2018-05-04T06:41:57.504Z,17.49
2018-05-04T06:42:58.099Z,17.59
2018-05-04T06:43:58.087Z,17.59
2018-05-04T06:44:57.851Z,17.67
2018-05-04T06:45:58.225Z,17.64
2018-05-04T06:46:57.896Z,17.65
2018-05-04T06:47:58.190Z,17.67
2018-05-04T06:48:58.186Z,17.65
2018-05-04T06:49:58.229Z,17.76
2018-05-04T06:50:57.983Z,17.71
2018-05-04T06:51:57.979Z,17.7
2018-05-04T06:52:58.280Z,17.67
2018-05-04T06:53:58.010Z,17.7
2018-05-04T06:54:58.054Z,17.72
2018-05-04T06:55:58.069Z,17.79
2018-05-04T06:56:58.385Z,17.76
2018-05-04T06:57:58.399Z,17.79
2018-05-04T06:58:58.402Z,17.78
2018-05-04T06:59:58.443Z,17.79
2018-05-04T07:00:58.149Z,17.82
2018-05-04T07:01:58.197Z,17.86
2018-05-04T07:02:58.502Z,17.83
2018-05-04T07:03:58.505Z,17.9
2018-05-04T07:04:58.538Z,17.89
2018-05-04T07:05:58.283Z,17.95
2018-05-04T07:06:58.277Z,17.97
2018-05-04T07:07:58.578Z,18.03
2018-05-04T07:08:58.505Z,18.08
2018-05-04T07:09:58.634Z,18.05
2018-05-04T07:10:58.362Z,18.1
2018-05-04T07:11:58.679Z,18.03
2018-05-04T07:12:58.411Z,18.07
2018-05-04T07:13:58.705Z,18.01
2018-05-04T07:14:58.778Z,18.18
2018-05-04T07:15:58.747Z,18.18
2018-05-04T07:16:58.465Z,18.11
2018-05-04T07:17:58.506Z,18.23
2018-05-04T07:18:58.818Z,18.2
2018-05-04T07:19:58.816Z,18.22
2018-05-04T07:20:58.848Z,18.33
2018-05-04T07:21:58.990Z,18.37
2018-05-04T07:22:58.607Z,18.35
2018-05-04T07:23:58.629Z,18.38
2018-05-04T07:24:58.925Z,18.38
2018-05-04T07:25:58.936Z,18.47
2018-05-04T07:26:58.984Z,18.49
2018-05-04T07:27:58.983Z,18.59
2018-05-04T07:28:59.019Z,18.56
2018-05-04T07:29:59.019Z,18.55
2018-05-04T07:30:59.064Z,18.58
2018-05-04T07:31:59.066Z,18.68
2018-05-04T07:32:59.075Z,18.66
2018-05-04T07:33:59.112Z,18.8
2018-05-04T07:34:59.137Z,18.73
2018-05-04T07:35:59.001Z,18.81
2018-05-04T07:36:59.163Z,18.83
2018-05-04T07:37:59.189Z,18.9
2018-05-04T07:38:59.226Z,18.95
2018-05-04T07:39:59.219Z,18.92
2018-05-04T07:40:59.285Z,18.96
2018-05-04T07:41:58.986Z,18.9
2018-05-04T07:42:59.267Z,19.14
2018-05-04T07:43:59.030Z,19.12
2018-05-04T07:44:59.340Z,19.12
2018-05-04T07:45:59.375Z,19.14
2018-05-04T07:46:58.808Z,19.19
2018-05-04T07:47:59.113Z,19.34
2018-05-04T07:48:59.401Z,19.31
2018-05-04T07:49:59.456Z,19.31
2018-05-04T07:50:59.180Z,19.34
2018-05-04T07:51:59.192Z,19.26
2018-05-04T07:52:59.477Z,19.44
2018-05-04T07:53:59.510Z,19.45
2018-05-04T07:54:58.967Z,19.48
2018-05-04T07:55:59.552Z,19.54
2018-05-04T07:56:59.297Z,19.55
2018-05-04T07:57:59.581Z,19.59
2018-05-04T07:58:59.622Z,19.52
2018-05-04T07:59:59.655Z,19.58
2018-05-04T08:00:59.660Z,19.58
2018-05-04T08:01:59.668Z,19.69
2018-05-04T08:02:59.576Z,19.69
2018-05-04T08:03:59.460Z,19.79
2018-05-04T08:04:59.741Z,19.74
2018-05-04T08:05:59.497Z,19.84
2018-05-04T08:06:59.502Z,19.84
2018-05-04T08:07:59.809Z,19.85
2018-05-04T08:08:59.544Z,19.92
2018-05-04T08:10:00.014Z,19.95
2018-05-04T08:10:59.855Z,20
2018-05-04T08:11:59.883Z,20.16
2018-05-04T08:12:59.918Z,20.21
2018-05-04T08:13:59.662Z,20.24
2018-05-04T08:15:00.006Z,20.36
2018-05-04T08:15:59.970Z,20.41
2018-05-04T08:17:00.054Z,20.5
2018-05-04T08:17:59.742Z,20.43
2018-05-04T08:18:59.753Z,20.52
2018-05-04T08:20:00.138Z,20.59
2018-05-04T08:21:00.076Z,20.69
2018-05-04T08:22:00.121Z,20.63
2018-05-04T08:23:00.129Z,20.77
2018-05-04T08:23:59.847Z,20.77
2018-05-04T08:24:59.655Z,20.84
2018-05-04T08:26:00.191Z,20.92
2018-05-04T08:27:00.212Z,20.97
2018-05-04T08:28:00.242Z,20.99
2018-05-04T08:28:59.964Z,20.97
2018-05-04T08:30:00.329Z,21.09
2018-05-04T08:31:00.302Z,21.21
2018-05-04T08:32:00.323Z,21.27
2018-05-04T08:33:00.042Z,21.25
2018-05-04T08:34:00.069Z,21.33
2018-05-04T08:35:00.393Z,21.45
2018-05-04T08:36:00.401Z,21.36
2018-05-04T08:37:00.484Z,21.42
2018-05-04T08:38:00.427Z,21.51
2018-05-04T08:39:00.455Z,21.57
2018-05-04T08:40:00.250Z,21.57
2018-05-04T08:41:00.210Z,21.61
2018-05-04T08:42:00.526Z,21.67
2018-05-04T08:43:00.778Z,21.7
2018-05-04T08:44:00.299Z,21.72
2018-05-04T08:45:00.587Z,21.79
2018-05-04T08:46:00.621Z,21.88
2018-05-04T08:47:00.624Z,21.89
2018-05-04T08:48:00.673Z,21.92
2018-05-04T08:49:00.692Z,21.92
2018-05-04T08:50:00.139Z,22
2018-05-04T08:51:00.563Z,21.99
2018-05-04T08:52:00.454Z,22.06
2018-05-04T08:53:00.764Z,22.08
2018-05-04T08:54:00.799Z,22.13
2018-05-04T08:55:00.858Z,22.22
2018-05-04T08:56:00.833Z,22.22
2018-05-04T08:57:00.328Z,22.28
2018-05-04T08:58:00.877Z,22.26
2018-05-04T08:59:00.615Z,22.39
2018-05-04T09:00:00.612Z,22.43
2018-05-04T09:01:00.652Z,22.45
2018-05-04T09:02:00.965Z,22.41
2018-05-04T09:03:00.703Z,22.47
2018-05-04T09:04:01.021Z,22.53
2018-05-04T09:05:01.001Z,22.57
2018-05-04T09:06:01.048Z,22.63
2018-05-04T09:07:01.091Z,22.68
2018-05-04T09:08:01.085Z,22.7
2018-05-04T09:09:01.110Z,22.69
2018-05-04T09:10:01.138Z,22.76
2018-05-04T09:11:00.868Z,22.93
2018-05-04T09:12:00.616Z,22.81
2018-05-04T09:13:01.199Z,22.9
2018-05-04T09:14:01.221Z,22.96
2018-05-04T09:15:01.344Z,23.03
2018-05-04T09:16:00.997Z,23.06
2018-05-04T09:17:00.990Z,23.1
2018-05-04T09:18:01.316Z,23.18
2018-05-04T09:19:01.324Z,23.21
2018-05-04T09:20:01.580Z,23.24
2018-05-04T09:21:01.090Z,23.39
2018-05-04T09:22:00.840Z,23.32
2018-05-04T09:23:01.429Z,23.36
2018-05-04T09:24:01.443Z,23.47
2018-05-04T09:25:01.168Z,23.5
2018-05-04T09:26:01.202Z,23.54
2018-05-04T09:27:01.493Z,23.55
2018-05-04T09:28:01.531Z,23.65
2018-05-04T09:29:01.557Z,23.61
2018-05-04T09:30:01.591Z,23.66
2018-05-04T09:31:01.697Z,23.8
2018-05-04T09:32:01.608Z,23.78
2018-05-04T09:33:01.376Z,23.68
2018-05-04T09:34:01.377Z,23.8
2018-05-04T09:35:01.688Z,23.88
2018-05-04T09:36:01.436Z,23.91
2018-05-04T09:37:01.781Z,23.87
2018-05-04T09:38:01.774Z,24.02
2018-05-04T09:39:01.777Z,24.1
2018-05-04T09:40:01.547Z,24.1
2018-05-04T09:41:01.309Z,24.2
2018-05-04T09:42:01.859Z,24.11
2018-05-04T09:43:01.859Z,24.17
2018-05-04T09:44:01.890Z,24.21
2018-05-04T09:45:01.928Z,24.24
2018-05-04T09:46:01.669Z,24.21
2018-05-04T09:47:01.699Z,24.28
2018-05-04T09:48:01.999Z,24.23
2018-05-04T09:49:02.202Z,24.24
2018-05-04T09:50:02.036Z,24.23
2018-05-04T09:51:02.066Z,24.26
2018-05-04T09:52:01.518Z,24.21
2018-05-04T09:53:01.828Z,24.23
2018-05-04T09:54:02.141Z,24.28
2018-05-04T09:55:02.139Z,24.23
2018-05-04T09:56:02.530Z,24.32
2018-05-04T09:57:01.913Z,24.28
2018-05-04T09:58:02.206Z,24.33
2018-05-04T09:59:02.248Z,24.4
2018-05-04T10:00:02.279Z,24.42
2018-05-04T10:01:02.307Z,24.4
2018-05-04T10:02:02.332Z,24.45
2018-05-04T10:03:02.342Z,24.4
2018-05-04T10:04:02.353Z,24.45
2018-05-04T10:05:02.371Z,24.47
2018-05-04T10:06:02.461Z,24.45
2018-05-04T10:07:02.237Z,24.45
2018-05-04T10:08:02.472Z,24.45
2018-05-04T10:09:02.521Z,24.54
2018-05-04T10:10:02.216Z,24.54
2018-05-04T10:11:02.585Z,24.57
2018-05-04T10:12:02.559Z,24.53
2018-05-04T10:13:02.580Z,24.54
2018-05-04T10:14:02.613Z,24.57
2018-05-04T10:15:02.333Z,24.51
2018-05-04T10:16:02.848Z,24.57
2018-05-04T10:17:02.673Z,24.55
2018-05-04T10:18:02.424Z,24.6
2018-05-04T10:19:02.711Z,24.65
2018-05-04T10:20:02.776Z,24.6
2018-05-04T10:21:02.501Z,24.6
2018-05-04T10:22:02.339Z,24.66
2018-05-04T10:23:02.839Z,24.66
2018-05-04T10:24:02.585Z,24.63
2018-05-04T10:25:02.888Z,24.68
2018-05-04T10:26:02.892Z,24.66
2018-05-04T10:27:02.946Z,24.73
2018-05-04T10:28:03.009Z,24.68
2018-05-04T10:29:02.977Z,24.73
2018-05-04T10:30:02.992Z,24.78
2018-05-04T10:31:03.017Z,24.74
2018-05-04T10:32:03.052Z,24.74
2018-05-04T10:33:02.793Z,24.81
2018-05-04T10:34:02.805Z,24.76
2018-05-04T10:35:03.114Z,24.8
2018-05-04T10:36:03.128Z,24.81
2018-05-04T10:37:02.887Z,24.81
2018-05-04T10:38:03.169Z,24.86
2018-05-04T10:39:03.032Z,24.86
2018-05-04T10:40:03.247Z,24.93
2018-05-04T10:41:02.999Z,24.85
2018-05-04T10:42:03.015Z,24.92
2018-05-04T10:43:03.028Z,24.88
2018-05-04T10:44:03.078Z,24.85
2018-05-04T10:45:03.467Z,24.84
2018-05-04T10:46:03.107Z,24.99
2018-05-04T10:47:03.404Z,24.96
2018-05-04T10:48:03.415Z,24.98
2018-05-04T10:49:03.165Z,24.95
2018-05-04T10:50:03.483Z,24.99
2018-05-04T10:51:02.948Z,25.01
2018-05-04T10:52:03.544Z,25.07
2018-05-04T10:53:03.565Z,25.06
2018-05-04T10:54:03.033Z,25.11
2018-05-04T10:55:03.587Z,25.08
2018-05-04T10:56:03.738Z,25.11
2018-05-04T10:57:03.651Z,25.11
2018-05-04T10:58:03.161Z,25.1
2018-05-04T10:59:03.717Z,25.13
2018-05-04T11:00:03.731Z,25.17
2018-05-04T11:01:03.805Z,25.18
2018-05-04T11:02:03.775Z,25.23
2018-05-04T11:03:03.813Z,25.29
2018-05-04T11:04:03.616Z,25.23
2018-05-04T11:05:03.868Z,25.26
2018-05-04T11:06:03.891Z,25.28
2018-05-04T11:07:03.903Z,25.22
2018-05-04T11:08:03.676Z,25.33
2018-05-04T11:09:03.973Z,25.35
2018-05-04T11:10:03.978Z,25.35
2018-05-04T11:11:04.100Z,25.32
2018-05-04T11:12:03.894Z,25.29
2018-05-04T11:13:04.038Z,25.29
2018-05-04T11:14:03.530Z,25.29
2018-05-04T11:15:04.103Z,25.32
2018-05-04T11:16:04.166Z,25.35
2018-05-04T11:17:04.165Z,25.36
2018-05-04T11:18:03.887Z,25.35
2018-05-04T11:19:04.215Z,25.36
2018-05-04T11:20:03.947Z,25.41
2018-05-04T11:21:04.310Z,25.29
2018-05-04T11:22:04.281Z,25.36
2018-05-04T11:23:04.305Z,25.44
2018-05-04T11:24:04.035Z,25.35
2018-05-04T11:25:04.080Z,25.29
2018-05-04T11:26:04.397Z,25.44
2018-05-04T11:27:04.391Z,25.36
2018-05-04T11:28:04.167Z,25.47
2018-05-04T11:29:04.460Z,25.47
2018-05-04T11:30:04.194Z,25.47
2018-05-04T11:31:04.217Z,25.47
2018-05-04T11:32:04.663Z,25.47
2018-05-04T11:33:04.265Z,25.46
2018-05-04T11:34:04.581Z,25.47
2018-05-04T11:35:04.611Z,25.48
2018-05-04T11:36:04.618Z,25.48
2018-05-04T11:37:04.674Z,25.4
2018-05-04T11:38:04.699Z,25.33
2018-05-04T11:39:04.532Z,25.5
2018-05-04T11:40:04.160Z,25.32
2018-05-04T11:41:04.481Z,25.32
2018-05-04T11:42:04.801Z,25.36
2018-05-04T11:43:04.833Z,25.32
2018-05-04T11:44:04.549Z,25.32
2018-05-04T11:45:04.569Z,25.35
2018-05-04T11:46:04.613Z,25.28
2018-05-04T11:47:04.933Z,25.31
2018-05-04T11:48:04.652Z,25.35
2018-05-04T11:49:04.978Z,25.29
2018-05-04T11:50:04.727Z,25.38
2018-05-04T11:51:04.740Z,25.33
2018-05-04T11:52:05.050Z,25.4
2018-05-04T11:53:05.149Z,25.47
2018-05-04T11:54:04.606Z,25.38
2018-05-04T11:55:05.223Z,25.48
2018-05-04T11:56:04.918Z,25.47
2018-05-04T11:57:05.241Z,25.47
2018-05-04T11:58:05.283Z,25.5
2018-05-04T11:59:05.268Z,25.4
2018-05-04T12:00:04.964Z,25.43
2018-05-04T12:01:04.725Z,25.44
2018-05-04T12:02:05.296Z,25.43
2018-05-04T12:03:05.045Z,25.44
2018-05-04T12:04:05.342Z,25.46
2018-05-04T12:05:05.111Z,25.46
2018-05-04T12:06:05.493Z,25.46
2018-05-04T12:07:05.429Z,25.4
2018-05-04T12:08:05.451Z,25.44
2018-05-04T12:09:05.465Z,25.46
2018-05-04T12:10:05.513Z,25.47
2018-05-04T12:11:05.511Z,25.48
2018-05-04T12:12:05.268Z,25.46
2018-05-04T12:13:05.557Z,25.58
2018-05-04T12:14:05.614Z,25.59
2018-05-04T12:15:05.638Z,25.58
2018-05-04T12:16:05.668Z,25.6
2018-05-04T12:17:06.070Z,25.55
2018-05-04T12:18:05.441Z,25.55
2018-05-04T12:19:05.745Z,25.58
2018-05-04T12:20:05.197Z,25.55
2018-05-04T12:21:05.506Z,25.59
2018-05-04T12:22:05.527Z,25.59
2018-05-04T12:23:05.564Z,25.65
2018-05-04T12:24:05.590Z,25.55
2018-05-04T12:25:05.899Z,25.58
2018-05-04T12:26:06.133Z,25.62
2018-05-04T12:27:05.940Z,25.62
2018-05-04T12:28:05.975Z,25.59
2018-05-04T12:29:06.019Z,25.66
2018-05-04T12:30:06.044Z,25.65
2018-05-04T12:31:06.031Z,25.72
2018-05-04T12:32:05.952Z,25.66
2018-05-04T12:33:06.088Z,25.66
2018-05-04T12:34:06.136Z,25.68
2018-05-04T12:35:06.147Z,25.69
2018-05-04T12:36:05.916Z,25.68
2018-05-04T12:37:06.341Z,25.72
2018-05-04T12:38:05.952Z,25.7
2018-05-04T12:39:06.239Z,25.72
2018-05-04T12:40:06.266Z,25.75
2018-05-04T12:41:05.732Z,25.81
2018-05-04T12:42:06.332Z,25.85
2018-05-04T12:43:06.380Z,25.81
2018-05-04T12:44:06.401Z,25.83
2018-05-04T12:45:06.387Z,25.81
2018-05-04T12:46:06.151Z,25.83
2018-05-04T12:47:06.735Z,25.9
2018-05-04T12:48:06.498Z,25.9
2018-05-04T12:49:06.571Z,25.95
2018-05-04T12:50:06.541Z,25.9
2018-05-04T12:51:06.008Z,25.88
2018-05-04T12:52:06.299Z,25.93
2018-05-04T12:53:06.325Z,26
2018-05-04T12:54:06.365Z,25.96
2018-05-04T12:55:06.389Z,26
2018-05-04T12:56:06.405Z,25.99
2018-05-04T12:57:06.763Z,25.96